sensor_id;sensor_type;location;lat;lon;timestamp;temperature;humidity
2899;DHT22;1459;50.864;6.438;2022-11-25T00:00:54;8.10;99.90
2899;DHT22;1459;50.864;6.438;2022-11-25T00:03:29;8.10;99.90
2899;DHT22;1459;50.864;6.438;2022-11-25T00:05:56;8.10;99.90
2899;DHT22;1459;50.864;6.438;2022-11-25T00:08:23;8.10;99.90
2899;DHT22;1459;50.864;6.438;2022-11-25T00:10:49;8.10;99.90
2899;DHT22;1459;50.864;6.438;2022-11-25T00:13:17;8.10;99.90
2899;DHT22;1459;50.864;6.438;2022-11-25T00:15:45;8.10;99.90
2899;DHT22;1459;50.864;6.438;2022-11-25T00:18:12;8.10;99.90
2899;DHT22;1459;50.864;6.438;2022-11-25T00:20:39;8.20;99.90
2899;DHT22;1459;50.864;6.438;2022-11-25T00:23:06;8.20;99.90
2899;DHT22;1459;50.864;6.438;2022-11-25T00:25:33;8.20;99.90
2899;DHT22;1459;50.864;6.438;2022-11-25T00:28:00;8.20;99.90
2899;DHT22;1459;50.864;6.438;2022-11-25T00:30:27;8.20;99.90
2899;DHT22;1459;50.864;6.438;2022-11-25T00:32:56;8.20;99.90
2899;DHT22;1459;50.864;6.438;2022-11-25T00:35:23;8.30;99.90
2899;DHT22;1459;50.864;6.438;2022-11-25T00:37:50;8.30;99.90
2899;DHT22;1459;50.864;6.438;2022-11-25T00:40:17;8.30;99.90
2899;DHT22;1459;50.864;6.438;2022-11-25T00:42:44;8.30;99.90
2899;DHT22;1459;50.864;6.438;2022-11-25T00:45:28;8.30;99.90
2899;DHT22;1459;50.864;6.438;2022-11-25T00:47:57;8.40;99.90
2899;DHT22;1459;50.864;6.438;2022-11-25T00:50:24;8.40;99.90
2899;DHT22;1459;50.864;6.438;2022-11-25T00:52:50;8.40;99.90
2899;DHT22;1459;50.864;6.438;2022-11-25T00:55:17;8.40;99.90
2899;DHT22;1459;50.864;6.438;2022-11-25T00:57:44;8.40;99.90
2899;DHT22;1459;50.864;6.438;2022-11-25T01:00:12;8.50;99.90
2899;DHT22;1459;50.864;6.438;2022-11-25T01:02:39;8.50;99.90
2899;DHT22;1459;50.864;6.438;2022-11-25T01:05:08;8.60;99.90
2899;DHT22;1459;50.864;6.438;2022-11-25T01:07:35;8.60;99.90
2899;DHT22;1459;50.864;6.438;2022-11-25T01:10:03;8.60;99.90
2899;DHT22;1459;50.864;6.438;2022-11-25T01:12:30;8.70;99.90
2899;DHT22;1459;50.864;6.438;2022-11-25T01:14:57;8.70;99.90
2899;DHT22;1459;50.864;6.438;2022-11-25T01:17:24;8.70;99.90
2899;DHT22;1459;50.864;6.438;2022-11-25T01:19:51;8.70;99.90
2899;DHT22;1459;50.864;6.438;2022-11-25T01:22:19;8.80;99.90
2899;DHT22;1459;50.864;6.438;2022-11-25T01:24:46;8.80;99.90
2899;DHT22;1459;50.864;6.438;2022-11-25T01:27:13;8.70;99.90
2899;DHT22;1459;50.864;6.438;2022-11-25T01:29:40;8.80;99.90
2899;DHT22;1459;50.864;6.438;2022-11-25T01:32:07;8.80;99.90
2899;DHT22;1459;50.864;6.438;2022-11-25T01:34:34;8.80;99.90
2899;DHT22;1459;50.864;6.438;2022-11-25T01:37:01;8.90;99.90
2899;DHT22;1459;50.864;6.438;2022-11-25T01:39:32;8.90;99.90
2899;DHT22;1459;50.864;6.438;2022-11-25T01:41:59;9.00;99.90
2899;DHT22;1459;50.864;6.438;2022-11-25T01:44:28;9.10;99.90
2899;DHT22;1459;50.864;6.438;2022-11-25T01:46:59;9.10;99.90
2899;DHT22;1459;50.864;6.438;2022-11-25T01:49:35;9.20;99.90
2899;DHT22;1459;50.864;6.438;2022-11-25T01:52:08;9.20;99.90
2899;DHT22;1459;50.864;6.438;2022-11-25T01:54:42;9.20;99.90
2899;DHT22;1459;50.864;6.438;2022-11-25T01:57:14;9.20;99.90
2899;DHT22;1459;50.864;6.438;2022-11-25T01:59:45;9.20;99.90
2899;DHT22;1459;50.864;6.438;2022-11-25T02:02:15;9.20;99.90
2899;DHT22;1459;50.864;6.438;2022-11-25T02:04:43;9.20;99.90
2899;DHT22;1459;50.864;6.438;2022-11-25T02:07:18;9.20;99.90
2899;DHT22;1459;50.864;6.438;2022-11-25T02:09:47;9.20;99.90
2899;DHT22;1459;50.864;6.438;2022-11-25T02:12:17;9.20;99.90
2899;DHT22;1459;50.864;6.438;2022-11-25T02:14:45;9.20;99.90
2899;DHT22;1459;50.864;6.438;2022-11-25T02:17:14;9.20;99.90
2899;DHT22;1459;50.864;6.438;2022-11-25T02:19:55;9.20;99.90
2899;DHT22;1459;50.864;6.438;2022-11-25T02:22:33;9.20;99.90
2899;DHT22;1459;50.864;6.438;2022-11-25T02:25:13;9.30;99.90
2899;DHT22;1459;50.864;6.438;2022-11-25T02:27:43;9.30;99.90
2899;DHT22;1459;50.864;6.438;2022-11-25T02:30:11;9.30;99.90
2899;DHT22;1459;50.864;6.438;2022-11-25T02:32:42;9.30;99.90
2899;DHT22;1459;50.864;6.438;2022-11-25T02:35:37;9.20;99.90
2899;DHT22;1459;50.864;6.438;2022-11-25T02:38:07;9.20;99.90
2899;DHT22;1459;50.864;6.438;2022-11-25T02:40:41;9.20;99.90
2899;DHT22;1459;50.864;6.438;2022-11-25T02:43:09;9.20;99.90
2899;DHT22;1459;50.864;6.438;2022-11-25T02:45:51;9.30;99.90
2899;DHT22;1459;50.864;6.438;2022-11-25T02:48:18;9.30;99.90
2899;DHT22;1459;50.864;6.438;2022-11-25T02:50:46;9.30;99.90
2899;DHT22;1459;50.864;6.438;2022-11-25T02:53:13;9.30;99.90
2899;DHT22;1459;50.864;6.438;2022-11-25T02:55:41;9.30;99.90
2899;DHT22;1459;50.864;6.438;2022-11-25T02:58:09;9.30;99.90
2899;DHT22;1459;50.864;6.438;2022-11-25T03:00:36;9.30;99.90
2899;DHT22;1459;50.864;6.438;2022-11-25T03:03:03;9.30;99.90
2899;DHT22;1459;50.864;6.438;2022-11-25T03:05:30;9.40;99.90
2899;DHT22;1459;50.864;6.438;2022-11-25T03:07:57;9.40;99.90
2899;DHT22;1459;50.864;6.438;2022-11-25T03:10:25;9.40;99.90
2899;DHT22;1459;50.864;6.438;2022-11-25T03:12:53;9.40;99.90
2899;DHT22;1459;50.864;6.438;2022-11-25T03:15:21;9.40;99.90
2899;DHT22;1459;50.864;6.438;2022-11-25T03:17:48;9.40;99.90
2899;DHT22;1459;50.864;6.438;2022-11-25T03:20:15;9.40;99.90
2899;DHT22;1459;50.864;6.438;2022-11-25T03:22:42;9.40;99.90
2899;DHT22;1459;50.864;6.438;2022-11-25T03:25:10;9.40;99.90
2899;DHT22;1459;50.864;6.438;2022-11-25T03:27:38;9.40;99.90
2899;DHT22;1459;50.864;6.438;2022-11-25T03:30:10;9.50;99.90
2899;DHT22;1459;50.864;6.438;2022-11-25T03:32:37;9.50;99.90
2899;DHT22;1459;50.864;6.438;2022-11-25T03:35:05;9.50;99.90
2899;DHT22;1459;50.864;6.438;2022-11-25T03:37:32;9.50;99.90
2899;DHT22;1459;50.864;6.438;2022-11-25T03:39:59;9.50;99.90
2899;DHT22;1459;50.864;6.438;2022-11-25T03:42:26;9.50;99.90
2899;DHT22;1459;50.864;6.438;2022-11-25T03:44:53;9.60;99.90
2899;DHT22;1459;50.864;6.438;2022-11-25T03:47:22;9.60;99.90
2899;DHT22;1459;50.864;6.438;2022-11-25T03:49:49;9.60;99.90
2899;DHT22;1459;50.864;6.438;2022-11-25T03:52:16;9.60;99.90
2899;DHT22;1459;50.864;6.438;2022-11-25T03:54:43;9.60;99.90
2899;DHT22;1459;50.864;6.438;2022-11-25T03:57:10;9.60;99.90
2899;DHT22;1459;50.864;6.438;2022-11-25T03:59:37;9.60;99.90
2899;DHT22;1459;50.864;6.438;2022-11-25T04:02:04;9.60;99.90
2899;DHT22;1459;50.864;6.438;2022-11-25T04:04:32;9.50;99.90
2899;DHT22;1459;50.864;6.438;2022-11-25T04:06:59;9.50;99.90
2899;DHT22;1459;50.864;6.438;2022-11-25T04:09:26;9.40;99.90
2899;DHT22;1459;50.864;6.438;2022-11-25T04:11:53;9.40;99.90
2899;DHT22;1459;50.864;6.438;2022-11-25T04:14:38;9.40;99.90
2899;DHT22;1459;50.864;6.438;2022-11-25T04:17:05;9.40;99.90
2899;DHT22;1459;50.864;6.438;2022-11-25T04:19:33;9.30;99.90
2899;DHT22;1459;50.864;6.438;2022-11-25T04:22:00;9.30;99.90
2899;DHT22;1459;50.864;6.438;2022-11-25T04:24:28;9.20;99.90
2899;DHT22;1459;50.864;6.438;2022-11-25T04:26:55;9.20;99.90
2899;DHT22;1459;50.864;6.438;2022-11-25T04:29:22;9.20;99.90
2899;DHT22;1459;50.864;6.438;2022-11-25T04:31:49;9.20;99.90
2899;DHT22;1459;50.864;6.438;2022-11-25T04:34:16;9.20;99.90
2899;DHT22;1459;50.864;6.438;2022-11-25T04:36:44;9.20;99.90
2899;DHT22;1459;50.864;6.438;2022-11-25T04:39:11;9.20;99.90
2899;DHT22;1459;50.864;6.438;2022-11-25T04:41:38;9.20;99.90
2899;DHT22;1459;50.864;6.438;2022-11-25T04:44:05;9.20;99.90
2899;DHT22;1459;50.864;6.438;2022-11-25T04:46:35;9.20;99.90
2899;DHT22;1459;50.864;6.438;2022-11-25T04:49:03;9.20;99.90
2899;DHT22;1459;50.864;6.438;2022-11-25T04:51:30;9.20;99.90
2899;DHT22;1459;50.864;6.438;2022-11-25T04:53:58;9.20;99.90
2899;DHT22;1459;50.864;6.438;2022-11-25T04:56:25;9.30;99.90
2899;DHT22;1459;50.864;6.438;2022-11-25T04:58:53;9.30;99.90
2899;DHT22;1459;50.864;6.438;2022-11-25T05:01:37;9.30;99.90
2899;DHT22;1459;50.864;6.438;2022-11-25T05:04:04;9.30;99.90
2899;DHT22;1459;50.864;6.438;2022-11-25T05:06:31;9.30;99.90
2899;DHT22;1459;50.864;6.438;2022-11-25T05:09:00;9.30;99.90
2899;DHT22;1459;50.864;6.438;2022-11-25T05:11:29;9.40;99.90
2899;DHT22;1459;50.864;6.438;2022-11-25T05:13:56;9.40;99.90
2899;DHT22;1459;50.864;6.438;2022-11-25T05:16:23;9.40;99.90
2899;DHT22;1459;50.864;6.438;2022-11-25T05:18:50;9.40;99.90
2899;DHT22;1459;50.864;6.438;2022-11-25T05:21:17;9.40;99.90
2899;DHT22;1459;50.864;6.438;2022-11-25T05:23:44;9.40;99.90
2899;DHT22;1459;50.864;6.438;2022-11-25T05:26:12;9.40;99.90
2899;DHT22;1459;50.864;6.438;2022-11-25T05:28:39;9.40;99.90
2899;DHT22;1459;50.864;6.438;2022-11-25T05:31:06;9.40;99.90
2899;DHT22;1459;50.864;6.438;2022-11-25T05:33:33;9.30;99.90
2899;DHT22;1459;50.864;6.438;2022-11-25T05:36:01;9.30;99.90
2899;DHT22;1459;50.864;6.438;2022-11-25T05:38:29;9.30;99.90
2899;DHT22;1459;50.864;6.438;2022-11-25T05:41:00;9.30;99.90
2899;DHT22;1459;50.864;6.438;2022-11-25T05:43:29;9.20;99.90
2899;DHT22;1459;50.864;6.438;2022-11-25T05:45:56;9.20;99.90
2899;DHT22;1459;50.864;6.438;2022-11-25T05:48:23;9.10;99.90
2899;DHT22;1459;50.864;6.438;2022-11-25T05:50:50;9.10;99.90
2899;DHT22;1459;50.864;6.438;2022-11-25T05:53:17;9.10;99.90
2899;DHT22;1459;50.864;6.438;2022-11-25T05:55:52;9.00;99.90
2899;DHT22;1459;50.864;6.438;2022-11-25T05:58:20;9.00;99.90
2899;DHT22;1459;50.864;6.438;2022-11-25T06:00:48;9.00;99.90
2899;DHT22;1459;50.864;6.438;2022-11-25T06:03:15;9.00;99.90
2899;DHT22;1459;50.864;6.438;2022-11-25T06:05:42;9.10;99.90
2899;DHT22;1459;50.864;6.438;2022-11-25T06:08:10;9.00;99.90
2899;DHT22;1459;50.864;6.438;2022-11-25T06:10:37;9.10;99.90
2899;DHT22;1459;50.864;6.438;2022-11-25T06:13:05;9.10;99.90
2899;DHT22;1459;50.864;6.438;2022-11-25T06:15:32;9.10;99.90
2899;DHT22;1459;50.864;6.438;2022-11-25T06:18:00;9.10;99.90
2899;DHT22;1459;50.864;6.438;2022-11-25T06:20:27;9.10;99.90
2899;DHT22;1459;50.864;6.438;2022-11-25T06:22:54;9.10;99.90
2899;DHT22;1459;50.864;6.438;2022-11-25T06:25:23;9.00;99.90
2899;DHT22;1459;50.864;6.438;2022-11-25T06:27:53;9.00;99.90
2899;DHT22;1459;50.864;6.438;2022-11-25T06:30:20;9.00;99.90
2899;DHT22;1459;50.864;6.438;2022-11-25T06:32:47;8.90;99.90
2899;DHT22;1459;50.864;6.438;2022-11-25T06:35:16;8.90;99.90
2899;DHT22;1459;50.864;6.438;2022-11-25T06:37:43;8.80;99.90
2899;DHT22;1459;50.864;6.438;2022-11-25T06:40:10;8.70;99.90
2899;DHT22;1459;50.864;6.438;2022-11-25T06:42:37;8.70;99.90
2899;DHT22;1459;50.864;6.438;2022-11-25T06:45:06;8.60;99.90
2899;DHT22;1459;50.864;6.438;2022-11-25T06:47:33;8.60;99.90
2899;DHT22;1459;50.864;6.438;2022-11-25T06:50:00;8.50;99.90
2899;DHT22;1459;50.864;6.438;2022-11-25T06:52:30;8.50;99.90
2899;DHT22;1459;50.864;6.438;2022-11-25T06:54:57;8.50;99.90
2899;DHT22;1459;50.864;6.438;2022-11-25T06:57:24;8.40;99.90
2899;DHT22;1459;50.864;6.438;2022-11-25T06:59:51;8.40;99.90
2899;DHT22;1459;50.864;6.438;2022-11-25T07:02:18;8.40;99.90
2899;DHT22;1459;50.864;6.438;2022-11-25T07:04:45;8.40;99.90
2899;DHT22;1459;50.864;6.438;2022-11-25T07:07:12;8.30;99.90
2899;DHT22;1459;50.864;6.438;2022-11-25T07:09:40;8.30;99.90
2899;DHT22;1459;50.864;6.438;2022-11-25T07:12:07;8.30;99.90
2899;DHT22;1459;50.864;6.438;2022-11-25T07:14:36;8.20;99.90
2899;DHT22;1459;50.864;6.438;2022-11-25T07:17:03;8.30;99.90
2899;DHT22;1459;50.864;6.438;2022-11-25T07:19:31;8.20;99.90
2899;DHT22;1459;50.864;6.438;2022-11-25T07:22:00;8.20;99.90
2899;DHT22;1459;50.864;6.438;2022-11-25T07:24:27;8.20;99.90
2899;DHT22;1459;50.864;6.438;2022-11-25T07:26:56;8.30;99.90
2899;DHT22;1459;50.864;6.438;2022-11-25T07:29:23;8.30;99.90
2899;DHT22;1459;50.864;6.438;2022-11-25T07:31:50;8.30;99.90
2899;DHT22;1459;50.864;6.438;2022-11-25T07:34:18;8.30;99.90
2899;DHT22;1459;50.864;6.438;2022-11-25T07:36:47;8.30;99.90
2899;DHT22;1459;50.864;6.438;2022-11-25T07:39:16;8.30;99.90
2899;DHT22;1459;50.864;6.438;2022-11-25T07:41:48;8.30;99.90
2899;DHT22;1459;50.864;6.438;2022-11-25T07:44:17;8.40;99.90
2899;DHT22;1459;50.864;6.438;2022-11-25T07:46:45;8.40;99.90
2899;DHT22;1459;50.864;6.438;2022-11-25T07:49:15;8.40;99.90
2899;DHT22;1459;50.864;6.438;2022-11-25T07:51:47;8.40;99.90
2899;DHT22;1459;50.864;6.438;2022-11-25T07:54:15;8.40;99.90
2899;DHT22;1459;50.864;6.438;2022-11-25T07:56:42;8.40;99.90
2899;DHT22;1459;50.864;6.438;2022-11-25T07:59:12;8.40;99.90
2899;DHT22;1459;50.864;6.438;2022-11-25T08:01:41;8.40;99.90
2899;DHT22;1459;50.864;6.438;2022-11-25T08:04:10;8.50;99.90
2899;DHT22;1459;50.864;6.438;2022-11-25T08:06:39;8.50;99.90
2899;DHT22;1459;50.864;6.438;2022-11-25T08:09:08;8.50;99.90
2899;DHT22;1459;50.864;6.438;2022-11-25T08:11:36;8.60;99.90
2899;DHT22;1459;50.864;6.438;2022-11-25T08:14:03;8.60;99.90
2899;DHT22;1459;50.864;6.438;2022-11-25T08:16:31;8.70;99.90
2899;DHT22;1459;50.864;6.438;2022-11-25T08:19:01;8.70;99.90
2899;DHT22;1459;50.864;6.438;2022-11-25T08:21:28;8.70;99.90
2899;DHT22;1459;50.864;6.438;2022-11-25T08:23:56;8.80;99.90
2899;DHT22;1459;50.864;6.438;2022-11-25T08:26:26;8.80;99.90
2899;DHT22;1459;50.864;6.438;2022-11-25T08:28:55;8.90;99.90
2899;DHT22;1459;50.864;6.438;2022-11-25T08:31:24;8.90;99.90
2899;DHT22;1459;50.864;6.438;2022-11-25T08:33:52;8.90;99.90
2899;DHT22;1459;50.864;6.438;2022-11-25T08:36:21;9.00;99.90
2899;DHT22;1459;50.864;6.438;2022-11-25T08:38:50;9.10;99.90
2899;DHT22;1459;50.864;6.438;2022-11-25T08:41:22;9.10;99.90
2899;DHT22;1459;50.864;6.438;2022-11-25T08:43:49;9.10;99.90
2899;DHT22;1459;50.864;6.438;2022-11-25T08:46:18;9.10;99.90
2899;DHT22;1459;50.864;6.438;2022-11-25T08:48:46;9.10;99.90
2899;DHT22;1459;50.864;6.438;2022-11-25T08:51:15;9.10;99.90
2899;DHT22;1459;50.864;6.438;2022-11-25T08:53:45;9.10;99.90
2899;DHT22;1459;50.864;6.438;2022-11-25T08:56:12;9.20;99.90
2899;DHT22;1459;50.864;6.438;2022-11-25T08:58:40;9.20;99.90
2899;DHT22;1459;50.864;6.438;2022-11-25T09:01:07;9.30;99.90
2899;DHT22;1459;50.864;6.438;2022-11-25T09:03:36;9.30;99.90
2899;DHT22;1459;50.864;6.438;2022-11-25T09:06:05;9.40;99.90
2899;DHT22;1459;50.864;6.438;2022-11-25T09:08:32;9.40;99.90
2899;DHT22;1459;50.864;6.438;2022-11-25T09:11:00;9.40;99.90
2899;DHT22;1459;50.864;6.438;2022-11-25T09:13:27;9.50;99.90
2899;DHT22;1459;50.864;6.438;2022-11-25T09:15:57;9.50;99.90
2899;DHT22;1459;50.864;6.438;2022-11-25T09:18:25;9.50;99.90
2899;DHT22;1459;50.864;6.438;2022-11-25T09:20:55;9.60;99.90
2899;DHT22;1459;50.864;6.438;2022-11-25T09:23:23;9.70;99.90
2899;DHT22;1459;50.864;6.438;2022-11-25T09:25:50;9.70;99.90
2899;DHT22;1459;50.864;6.438;2022-11-25T09:28:19;9.70;99.90
2899;DHT22;1459;50.864;6.438;2022-11-25T09:30:47;9.80;99.90
2899;DHT22;1459;50.864;6.438;2022-11-25T09:33:17;9.80;99.90
2899;DHT22;1459;50.864;6.438;2022-11-25T09:35:44;9.80;99.90
2899;DHT22;1459;50.864;6.438;2022-11-25T09:38:14;9.80;99.90
2899;DHT22;1459;50.864;6.438;2022-11-25T09:40:50;9.90;99.90
2899;DHT22;1459;50.864;6.438;2022-11-25T09:43:31;9.90;99.90
2899;DHT22;1459;50.864;6.438;2022-11-25T09:46:35;10.00;99.90
2899;DHT22;1459;50.864;6.438;2022-11-25T09:49:23;10.00;99.90
2899;DHT22;1459;50.864;6.438;2022-11-25T09:52:03;10.10;99.90
2899;DHT22;1459;50.864;6.438;2022-11-25T09:54:36;10.10;99.90
2899;DHT22;1459;50.864;6.438;2022-11-25T09:57:16;10.10;99.90
2899;DHT22;1459;50.864;6.438;2022-11-25T09:59:53;10.10;99.90
2899;DHT22;1459;50.864;6.438;2022-11-25T10:02:31;10.20;99.90
2899;DHT22;1459;50.864;6.438;2022-11-25T10:05:04;10.20;99.90
2899;DHT22;1459;50.864;6.438;2022-11-25T10:07:36;10.30;99.90
2899;DHT22;1459;50.864;6.438;2022-11-25T10:10:05;10.40;99.90
2899;DHT22;1459;50.864;6.438;2022-11-25T10:12:37;10.50;99.90
2899;DHT22;1459;50.864;6.438;2022-11-25T10:15:14;10.70;99.90
2899;DHT22;1459;50.864;6.438;2022-11-25T10:17:45;10.90;99.90
2899;DHT22;1459;50.864;6.438;2022-11-25T10:20:18;10.90;99.90
2899;DHT22;1459;50.864;6.438;2022-11-25T10:22:48;11.00;99.90
2899;DHT22;1459;50.864;6.438;2022-11-25T10:25:18;11.10;99.90
2899;DHT22;1459;50.864;6.438;2022-11-25T10:27:49;11.40;99.90
2899;DHT22;1459;50.864;6.438;2022-11-25T10:30:22;11.60;99.90
2899;DHT22;1459;50.864;6.438;2022-11-25T10:32:52;11.60;99.90
2899;DHT22;1459;50.864;6.438;2022-11-25T10:35:26;11.80;99.90
2899;DHT22;1459;50.864;6.438;2022-11-25T10:40:24;11.90;99.90
2899;DHT22;1459;50.864;6.438;2022-11-25T10:42:51;11.90;99.90
2899;DHT22;1459;50.864;6.438;2022-11-25T10:45:24;12.10;99.90
2899;DHT22;1459;50.864;6.438;2022-11-25T10:48:29;12.20;99.90
2899;DHT22;1459;50.864;6.438;2022-11-25T10:51:09;12.30;99.90
2899;DHT22;1459;50.864;6.438;2022-11-25T10:53:37;12.40;99.90
2899;DHT22;1459;50.864;6.438;2022-11-25T10:56:09;12.40;99.90
2899;DHT22;1459;50.864;6.438;2022-11-25T10:58:37;12.40;99.90
2899;DHT22;1459;50.864;6.438;2022-11-25T11:01:16;12.40;99.90
2899;DHT22;1459;50.864;6.438;2022-11-25T11:03:45;12.30;99.90
2899;DHT22;1459;50.864;6.438;2022-11-25T11:06:29;12.30;99.90
2899;DHT22;1459;50.864;6.438;2022-11-25T11:08:57;12.30;99.90
2899;DHT22;1459;50.864;6.438;2022-11-25T11:11:24;12.30;99.90
2899;DHT22;1459;50.864;6.438;2022-11-25T11:13:58;12.20;99.90
2899;DHT22;1459;50.864;6.438;2022-11-25T11:16:40;12.20;99.90
2899;DHT22;1459;50.864;6.438;2022-11-25T11:19:20;12.10;99.90
2899;DHT22;1459;50.864;6.438;2022-11-25T11:21:48;12.10;99.90
2899;DHT22;1459;50.864;6.438;2022-11-25T11:24:25;12.20;99.90
2899;DHT22;1459;50.864;6.438;2022-11-25T11:27:04;12.10;99.90
2899;DHT22;1459;50.864;6.438;2022-11-25T11:29:31;12.20;99.90
2899;DHT22;1459;50.864;6.438;2022-11-25T11:32:01;12.20;99.90
2899;DHT22;1459;50.864;6.438;2022-11-25T11:37:31;12.30;99.90
2899;DHT22;1459;50.864;6.438;2022-11-25T11:40:20;12.30;99.90
2899;DHT22;1459;50.864;6.438;2022-11-25T11:42:57;12.20;99.90
2899;DHT22;1459;50.864;6.438;2022-11-25T11:45:40;12.20;99.90
2899;DHT22;1459;50.864;6.438;2022-11-25T11:48:20;12.20;99.90
2899;DHT22;1459;50.864;6.438;2022-11-25T11:51:00;12.20;99.90
2899;DHT22;1459;50.864;6.438;2022-11-25T11:53:33;12.30;99.90
2899;DHT22;1459;50.864;6.438;2022-11-25T11:56:07;12.40;99.90
2899;DHT22;1459;50.864;6.438;2022-11-25T11:58:48;12.40;99.90
2899;DHT22;1459;50.864;6.438;2022-11-25T12:01:27;12.50;99.90
2899;DHT22;1459;50.864;6.438;2022-11-25T12:03:59;12.50;99.90
2899;DHT22;1459;50.864;6.438;2022-11-25T12:06:30;12.50;99.90
2899;DHT22;1459;50.864;6.438;2022-11-25T12:09:02;12.40;99.90
2899;DHT22;1459;50.864;6.438;2022-11-25T12:11:33;12.30;99.90
2899;DHT22;1459;50.864;6.438;2022-11-25T12:14:05;12.30;99.90
2899;DHT22;1459;50.864;6.438;2022-11-25T12:16:38;12.20;99.90
2899;DHT22;1459;50.864;6.438;2022-11-25T12:19:13;12.20;99.90
2899;DHT22;1459;50.864;6.438;2022-11-25T12:21:49;12.10;99.90
2899;DHT22;1459;50.864;6.438;2022-11-25T12:24:23;12.10;99.90
2899;DHT22;1459;50.864;6.438;2022-11-25T12:26:56;12.00;99.90
2899;DHT22;1459;50.864;6.438;2022-11-25T12:29:32;12.00;99.90
2899;DHT22;1459;50.864;6.438;2022-11-25T12:32:14;12.00;99.90
2899;DHT22;1459;50.864;6.438;2022-11-25T12:34:52;12.00;99.90
2899;DHT22;1459;50.864;6.438;2022-11-25T12:37:29;12.00;99.90
2899;DHT22;1459;50.864;6.438;2022-11-25T12:40:02;11.90;99.90
2899;DHT22;1459;50.864;6.438;2022-11-25T12:42:31;11.90;99.90
2899;DHT22;1459;50.864;6.438;2022-11-25T12:45:02;11.90;99.90
2899;DHT22;1459;50.864;6.438;2022-11-25T12:47:30;11.80;99.90
2899;DHT22;1459;50.864;6.438;2022-11-25T12:49:59;11.80;99.90
2899;DHT22;1459;50.864;6.438;2022-11-25T12:52:45;11.80;99.90
2899;DHT22;1459;50.864;6.438;2022-11-25T12:55:17;11.80;99.90
2899;DHT22;1459;50.864;6.438;2022-11-25T12:58:23;11.80;99.90
2899;DHT22;1459;50.864;6.438;2022-11-25T13:04:16;11.90;99.90
2899;DHT22;1459;50.864;6.438;2022-11-25T13:07:16;11.90;99.90
2899;DHT22;1459;50.864;6.438;2022-11-25T13:10:00;12.00;99.90
2899;DHT22;1459;50.864;6.438;2022-11-25T13:12:42;12.00;99.90
2899;DHT22;1459;50.864;6.438;2022-11-25T13:15:22;12.00;99.90
2899;DHT22;1459;50.864;6.438;2022-11-25T13:17:55;11.90;99.90
2899;DHT22;1459;50.864;6.438;2022-11-25T13:20:45;11.80;99.90
2899;DHT22;1459;50.864;6.438;2022-11-25T13:23:25;11.80;99.90
2899;DHT22;1459;50.864;6.438;2022-11-25T13:28:41;11.80;99.90
2899;DHT22;1459;50.864;6.438;2022-11-25T13:31:21;11.80;99.90
2899;DHT22;1459;50.864;6.438;2022-11-25T13:34:06;11.80;99.90
2899;DHT22;1459;50.864;6.438;2022-11-25T13:36:44;11.90;99.90
2899;DHT22;1459;50.864;6.438;2022-11-25T13:39:15;11.90;99.90
2899;DHT22;1459;50.864;6.438;2022-11-25T13:41:56;11.90;99.90
2899;DHT22;1459;50.864;6.438;2022-11-25T13:44:26;11.90;99.90
2899;DHT22;1459;50.864;6.438;2022-11-25T13:46:57;11.90;99.90
2899;DHT22;1459;50.864;6.438;2022-11-25T13:49:39;11.80;99.90
2899;DHT22;1459;50.864;6.438;2022-11-25T13:52:29;11.80;99.90
2899;DHT22;1459;50.864;6.438;2022-11-25T13:55:01;11.80;99.90
2899;DHT22;1459;50.864;6.438;2022-11-25T13:57:32;11.90;99.90
2899;DHT22;1459;50.864;6.438;2022-11-25T14:00:02;11.80;99.90
2899;DHT22;1459;50.864;6.438;2022-11-25T14:02:42;11.80;99.90
2899;DHT22;1459;50.864;6.438;2022-11-25T14:05:53;11.80;99.90
2899;DHT22;1459;50.864;6.438;2022-11-25T14:08:36;11.70;99.90
2899;DHT22;1459;50.864;6.438;2022-11-25T14:11:38;11.70;99.90
2899;DHT22;1459;50.864;6.438;2022-11-25T14:14:38;11.70;99.90
2899;DHT22;1459;50.864;6.438;2022-11-25T14:17:22;11.70;99.90
2899;DHT22;1459;50.864;6.438;2022-11-25T14:20:04;11.70;99.90
2899;DHT22;1459;50.864;6.438;2022-11-25T14:25:45;11.70;99.90
2899;DHT22;1459;50.864;6.438;2022-11-25T14:28:24;11.70;99.90
2899;DHT22;1459;50.864;6.438;2022-11-25T14:30:55;11.60;99.90
2899;DHT22;1459;50.864;6.438;2022-11-25T14:33:30;11.60;99.90
2899;DHT22;1459;50.864;6.438;2022-11-25T14:36:04;11.60;99.90
2899;DHT22;1459;50.864;6.438;2022-11-25T14:38:37;11.60;99.90
2899;DHT22;1459;50.864;6.438;2022-11-25T14:41:09;11.60;99.90
2899;DHT22;1459;50.864;6.438;2022-11-25T14:43:39;11.60;99.90
2899;DHT22;1459;50.864;6.438;2022-11-25T14:46:10;11.60;99.90
2899;DHT22;1459;50.864;6.438;2022-11-25T14:48:37;11.60;99.90
2899;DHT22;1459;50.864;6.438;2022-11-25T14:51:06;11.60;99.90
2899;DHT22;1459;50.864;6.438;2022-11-25T14:53:37;11.60;99.90
2899;DHT22;1459;50.864;6.438;2022-11-25T14:56:06;11.60;99.90
2899;DHT22;1459;50.864;6.438;2022-11-25T14:58:33;11.70;99.90
2899;DHT22;1459;50.864;6.438;2022-11-25T15:01:04;11.70;99.90
2899;DHT22;1459;50.864;6.438;2022-11-25T15:03:31;11.80;99.90
2899;DHT22;1459;50.864;6.438;2022-11-25T15:06:02;11.70;99.90
2899;DHT22;1459;50.864;6.438;2022-11-25T15:08:37;11.70;99.90
2899;DHT22;1459;50.864;6.438;2022-11-25T15:11:11;11.60;99.90
2899;DHT22;1459;50.864;6.438;2022-11-25T15:13:40;11.50;99.90
2899;DHT22;1459;50.864;6.438;2022-11-25T15:16:12;11.40;99.90
2899;DHT22;1459;50.864;6.438;2022-11-25T15:18:46;11.30;99.90
2899;DHT22;1459;50.864;6.438;2022-11-25T15:21:18;11.30;99.90
2899;DHT22;1459;50.864;6.438;2022-11-25T15:23:48;11.10;99.90
2899;DHT22;1459;50.864;6.438;2022-11-25T15:26:17;11.00;99.90
2899;DHT22;1459;50.864;6.438;2022-11-25T15:28:45;10.90;99.90
2899;DHT22;1459;50.864;6.438;2022-11-25T15:31:18;10.90;99.90
2899;DHT22;1459;50.864;6.438;2022-11-25T15:33:46;10.80;99.90
2899;DHT22;1459;50.864;6.438;2022-11-25T15:36:18;10.80;99.90
2899;DHT22;1459;50.864;6.438;2022-11-25T15:38:45;10.80;99.90
2899;DHT22;1459;50.864;6.438;2022-11-25T15:41:19;10.80;99.90
2899;DHT22;1459;50.864;6.438;2022-11-25T15:43:48;10.80;99.90
2899;DHT22;1459;50.864;6.438;2022-11-25T15:46:17;10.80;99.90
2899;DHT22;1459;50.864;6.438;2022-11-25T15:48:45;10.80;99.90
2899;DHT22;1459;50.864;6.438;2022-11-25T15:54:14;10.80;99.90
2899;DHT22;1459;50.864;6.438;2022-11-25T15:56:45;10.90;99.90
2899;DHT22;1459;50.864;6.438;2022-11-25T15:59:38;10.90;99.90
2899;DHT22;1459;50.864;6.438;2022-11-25T16:02:32;10.90;99.90
2899;DHT22;1459;50.864;6.438;2022-11-25T16:05:21;10.90;99.90
2899;DHT22;1459;50.864;6.438;2022-11-25T16:10:50;10.90;99.90
2899;DHT22;1459;50.864;6.438;2022-11-25T16:13:30;10.90;99.90
2899;DHT22;1459;50.864;6.438;2022-11-25T16:16:01;10.80;99.90
2899;DHT22;1459;50.864;6.438;2022-11-25T16:18:38;10.80;99.90
2899;DHT22;1459;50.864;6.438;2022-11-25T16:21:09;10.70;99.90
2899;DHT22;1459;50.864;6.438;2022-11-25T16:23:39;10.70;99.90
2899;DHT22;1459;50.864;6.438;2022-11-25T16:26:14;10.70;99.90
2899;DHT22;1459;50.864;6.438;2022-11-25T16:28:49;10.70;99.90
2899;DHT22;1459;50.864;6.438;2022-11-25T16:31:17;10.70;99.90
2899;DHT22;1459;50.864;6.438;2022-11-25T16:33:45;10.70;99.90
2899;DHT22;1459;50.864;6.438;2022-11-25T16:36:13;10.60;99.90
2899;DHT22;1459;50.864;6.438;2022-11-25T16:38:39;10.60;99.90
2899;DHT22;1459;50.864;6.438;2022-11-25T16:41:09;10.60;99.90
2899;DHT22;1459;50.864;6.438;2022-11-25T16:43:36;10.60;99.90
2899;DHT22;1459;50.864;6.438;2022-11-25T16:46:05;10.70;99.90
2899;DHT22;1459;50.864;6.438;2022-11-25T16:48:32;10.70;99.90
2899;DHT22;1459;50.864;6.438;2022-11-25T16:51:00;10.70;99.90
2899;DHT22;1459;50.864;6.438;2022-11-25T16:53:27;10.70;99.90
2899;DHT22;1459;50.864;6.438;2022-11-25T16:55:55;10.70;99.90
2899;DHT22;1459;50.864;6.438;2022-11-25T16:58:22;10.70;99.90